sensor_id;sensor_type;location;lat;lon;timestamp;temperature;humidity
33328;DHT22;19692;52.998;9.116;2023-09-19T00:00:22;16.50;99.90
33328;DHT22;19692;52.998;9.116;2023-09-19T00:05:19;16.40;99.90
33328;DHT22;19692;52.998;9.116;2023-09-19T00:07:50;16.40;99.90
33328;DHT22;19692;52.998;9.116;2023-09-19T00:10:21;16.40;99.90
33328;DHT22;19692;52.998;9.116;2023-09-19T00:12:53;16.30;99.90
33328;DHT22;19692;52.998;9.116;2023-09-19T00:15:21;16.30;99.90
33328;DHT22;19692;52.998;9.116;2023-09-19T00:17:48;16.30;99.90
33328;DHT22;19692;52.998;9.116;2023-09-19T00:20:14;16.30;99.90
33328;DHT22;19692;52.998;9.116;2023-09-19T00:22:44;16.30;99.90
33328;DHT22;19692;52.998;9.116;2023-09-19T00:25:10;16.40;99.90
33328;DHT22;19692;52.998;9.116;2023-09-19T00:27:38;16.50;99.90
33328;DHT22;19692;52.998;9.116;2023-09-19T00:30:08;16.30;99.90
33328;DHT22;19692;52.998;9.116;2023-09-19T00:32:50;16.30;99.90
33328;DHT22;19692;52.998;9.116;2023-09-19T00:35:23;16.30;99.90
33328;DHT22;19692;52.998;9.116;2023-09-19T00:37:49;16.30;99.90
33328;DHT22;19692;52.998;9.116;2023-09-19T00:40:16;16.30;99.90
33328;DHT22;19692;52.998;9.116;2023-09-19T00:42:46;16.40;99.90
33328;DHT22;19692;52.998;9.116;2023-09-19T00:45:14;16.30;99.90
33328;DHT22;19692;52.998;9.116;2023-09-19T00:47:45;16.30;99.90
33328;DHT22;19692;52.998;9.116;2023-09-19T00:50:17;16.30;99.90
33328;DHT22;19692;52.998;9.116;2023-09-19T00:52:46;16.30;99.90
33328;DHT22;19692;52.998;9.116;2023-09-19T00:55:15;16.40;99.90
33328;DHT22;19692;52.998;9.116;2023-09-19T00:57:41;16.40;99.90
33328;DHT22;19692;52.998;9.116;2023-09-19T01:00:10;16.40;99.90
33328;DHT22;19692;52.998;9.116;2023-09-19T01:02:41;16.40;99.90
33328;DHT22;19692;52.998;9.116;2023-09-19T01:05:10;16.40;99.90
33328;DHT22;19692;52.998;9.116;2023-09-19T01:07:36;16.50;99.90
33328;DHT22;19692;52.998;9.116;2023-09-19T01:10:12;16.40;99.90
33328;DHT22;19692;52.998;9.116;2023-09-19T01:16:12;16.40;99.90
33328;DHT22;19692;52.998;9.116;2023-09-19T01:21:57;16.30;99.90
33328;DHT22;19692;52.998;9.116;2023-09-19T01:30:57;16.40;99.90
33328;DHT22;19692;52.998;9.116;2023-09-19T01:33:26;16.30;99.90
33328;DHT22;19692;52.998;9.116;2023-09-19T01:35:52;16.30;99.90
33328;DHT22;19692;52.998;9.116;2023-09-19T01:38:19;16.30;99.90
33328;DHT22;19692;52.998;9.116;2023-09-19T01:40:56;16.30;99.90
33328;DHT22;19692;52.998;9.116;2023-09-19T01:43:42;16.30;99.90
33328;DHT22;19692;52.998;9.116;2023-09-19T01:51:50;15.90;99.90
33328;DHT22;19692;52.998;9.116;2023-09-19T01:54:26;15.70;99.90
33328;DHT22;19692;52.998;9.116;2023-09-19T01:59:48;15.30;99.90
33328;DHT22;19692;52.998;9.116;2023-09-19T02:02:17;15.30;99.90
33328;DHT22;19692;52.998;9.116;2023-09-19T02:04:43;15.30;99.90
33328;DHT22;19692;52.998;9.116;2023-09-19T02:07:09;15.20;99.90
33328;DHT22;19692;52.998;9.116;2023-09-19T02:09:35;15.00;99.90
33328;DHT22;19692;52.998;9.116;2023-09-19T02:12:03;15.10;99.90
33328;DHT22;19692;52.998;9.116;2023-09-19T02:14:30;15.10;99.90
33328;DHT22;19692;52.998;9.116;2023-09-19T02:16:56;15.10;99.90
33328;DHT22;19692;52.998;9.116;2023-09-19T02:19:22;15.10;99.90
33328;DHT22;19692;52.998;9.116;2023-09-19T02:21:47;15.00;99.90
33328;DHT22;19692;52.998;9.116;2023-09-19T02:24:14;15.10;99.90
33328;DHT22;19692;52.998;9.116;2023-09-19T02:26:41;15.00;99.90
33328;DHT22;19692;52.998;9.116;2023-09-19T02:29:06;14.90;99.90
33328;DHT22;19692;52.998;9.116;2023-09-19T02:31:32;14.80;99.90
33328;DHT22;19692;52.998;9.116;2023-09-19T02:33:58;14.90;99.90
33328;DHT22;19692;52.998;9.116;2023-09-19T02:36:25;14.90;99.90
33328;DHT22;19692;52.998;9.116;2023-09-19T02:38:51;14.90;99.90
33328;DHT22;19692;52.998;9.116;2023-09-19T02:41:17;14.90;99.90
33328;DHT22;19692;52.998;9.116;2023-09-19T02:43:43;14.90;99.90
33328;DHT22;19692;52.998;9.116;2023-09-19T02:46:08;14.80;99.90
33328;DHT22;19692;52.998;9.116;2023-09-19T02:48:34;14.80;99.90
33328;DHT22;19692;52.998;9.116;2023-09-19T02:51:01;14.80;99.90
33328;DHT22;19692;52.998;9.116;2023-09-19T02:53:27;14.80;99.90
33328;DHT22;19692;52.998;9.116;2023-09-19T02:55:53;14.80;99.90
33328;DHT22;19692;52.998;9.116;2023-09-19T02:58:19;14.80;99.90
33328;DHT22;19692;52.998;9.116;2023-09-19T03:00:45;14.80;99.90
33328;DHT22;19692;52.998;9.116;2023-09-19T03:03:13;14.80;99.90
33328;DHT22;19692;52.998;9.116;2023-09-19T03:05:40;14.70;99.90
33328;DHT22;19692;52.998;9.116;2023-09-19T03:08:06;14.70;99.90
33328;DHT22;19692;52.998;9.116;2023-09-19T03:10:35;14.80;99.90
33328;DHT22;19692;52.998;9.116;2023-09-19T03:13:03;14.70;99.90
33328;DHT22;19692;52.998;9.116;2023-09-19T03:15:28;14.60;99.90
33328;DHT22;19692;52.998;9.116;2023-09-19T03:17:54;14.60;99.90
33328;DHT22;19692;52.998;9.116;2023-09-19T03:20:20;14.60;99.90
33328;DHT22;19692;52.998;9.116;2023-09-19T03:22:46;14.60;99.90
33328;DHT22;19692;52.998;9.116;2023-09-19T03:25:12;14.60;99.90
33328;DHT22;19692;52.998;9.116;2023-09-19T03:27:39;14.50;99.90
33328;DHT22;19692;52.998;9.116;2023-09-19T03:30:05;14.50;99.90
33328;DHT22;19692;52.998;9.116;2023-09-19T03:32:37;14.50;99.90
33328;DHT22;19692;52.998;9.116;2023-09-19T03:35:09;14.50;99.90
33328;DHT22;19692;52.998;9.116;2023-09-19T03:37:34;14.50;99.90
33328;DHT22;19692;52.998;9.116;2023-09-19T03:40:00;14.50;99.90
33328;DHT22;19692;52.998;9.116;2023-09-19T03:42:30;14.50;99.90
33328;DHT22;19692;52.998;9.116;2023-09-19T03:44:56;14.40;99.90
33328;DHT22;19692;52.998;9.116;2023-09-19T03:47:22;14.50;99.90
33328;DHT22;19692;52.998;9.116;2023-09-19T03:49:48;14.50;99.90
33328;DHT22;19692;52.998;9.116;2023-09-19T03:52:14;14.50;99.90
33328;DHT22;19692;52.998;9.116;2023-09-19T03:54:41;14.60;99.90
33328;DHT22;19692;52.998;9.116;2023-09-19T03:57:07;14.50;99.90
33328;DHT22;19692;52.998;9.116;2023-09-19T03:59:33;14.50;99.90
33328;DHT22;19692;52.998;9.116;2023-09-19T04:01:58;14.50;99.90
33328;DHT22;19692;52.998;9.116;2023-09-19T04:04:24;14.50;99.90
33328;DHT22;19692;52.998;9.116;2023-09-19T04:06:51;14.50;99.90
33328;DHT22;19692;52.998;9.116;2023-09-19T04:09:17;14.50;99.90
33328;DHT22;19692;52.998;9.116;2023-09-19T04:11:43;14.50;99.90
33328;DHT22;19692;52.998;9.116;2023-09-19T04:14:09;14.50;99.90
33328;DHT22;19692;52.998;9.116;2023-09-19T04:16:35;14.50;99.90
33328;DHT22;19692;52.998;9.116;2023-09-19T04:19:00;14.50;99.90
33328;DHT22;19692;52.998;9.116;2023-09-19T04:21:26;14.50;99.90
33328;DHT22;19692;52.998;9.116;2023-09-19T04:23:53;14.50;99.90
33328;DHT22;19692;52.998;9.116;2023-09-19T04:26:19;14.50;99.90
33328;DHT22;19692;52.998;9.116;2023-09-19T04:28:45;14.60;99.90
33328;DHT22;19692;52.998;9.116;2023-09-19T04:31:11;14.50;99.90
33328;DHT22;19692;52.998;9.116;2023-09-19T04:33:37;14.50;99.90
33328;DHT22;19692;52.998;9.116;2023-09-19T04:36:03;14.50;99.90
33328;DHT22;19692;52.998;9.116;2023-09-19T04:38:30;14.50;99.90
33328;DHT22;19692;52.998;9.116;2023-09-19T04:40:57;14.50;99.90
33328;DHT22;19692;52.998;9.116;2023-09-19T04:43:24;14.50;99.90
33328;DHT22;19692;52.998;9.116;2023-09-19T04:45:50;14.50;99.90
33328;DHT22;19692;52.998;9.116;2023-09-19T04:48:19;14.40;99.90
33328;DHT22;19692;52.998;9.116;2023-09-19T04:50:45;14.40;99.90
33328;DHT22;19692;52.998;9.116;2023-09-19T04:53:11;14.40;99.90
33328;DHT22;19692;52.998;9.116;2023-09-19T04:55:36;14.30;99.90
33328;DHT22;19692;52.998;9.116;2023-09-19T04:58:02;14.30;99.90
33328;DHT22;19692;52.998;9.116;2023-09-19T05:00:29;14.30;99.90
33328;DHT22;19692;52.998;9.116;2023-09-19T05:02:56;14.30;99.90
33328;DHT22;19692;52.998;9.116;2023-09-19T05:05:22;14.30;99.90
33328;DHT22;19692;52.998;9.116;2023-09-19T05:07:49;14.20;99.90
33328;DHT22;19692;52.998;9.116;2023-09-19T05:10:16;14.20;99.90
33328;DHT22;19692;52.998;9.116;2023-09-19T05:12:44;14.20;99.90
33328;DHT22;19692;52.998;9.116;2023-09-19T05:15:12;14.20;99.90
33328;DHT22;19692;52.998;9.116;2023-09-19T05:17:40;14.20;99.90
33328;DHT22;19692;52.998;9.116;2023-09-19T05:20:06;14.20;99.90
33328;DHT22;19692;52.998;9.116;2023-09-19T05:22:57;14.20;99.90
33328;DHT22;19692;52.998;9.116;2023-09-19T05:25:36;14.20;99.90
33328;DHT22;19692;52.998;9.116;2023-09-19T05:28:03;14.20;99.90
33328;DHT22;19692;52.998;9.116;2023-09-19T05:30:32;14.20;99.90
33328;DHT22;19692;52.998;9.116;2023-09-19T05:32:58;14.30;99.90
33328;DHT22;19692;52.998;9.116;2023-09-19T05:35:24;14.20;99.90
33328;DHT22;19692;52.998;9.116;2023-09-19T05:37:51;14.20;99.90
33328;DHT22;19692;52.998;9.116;2023-09-19T05:40:18;14.20;99.90
33328;DHT22;19692;52.998;9.116;2023-09-19T05:42:45;14.20;99.90
33328;DHT22;19692;52.998;9.116;2023-09-19T05:45:12;14.20;99.90
33328;DHT22;19692;52.998;9.116;2023-09-19T05:47:41;14.20;99.90
33328;DHT22;19692;52.998;9.116;2023-09-19T05:50:09;14.20;99.90
33328;DHT22;19692;52.998;9.116;2023-09-19T05:52:38;14.20;99.90
33328;DHT22;19692;52.998;9.116;2023-09-19T05:55:05;14.30;99.90
33328;DHT22;19692;52.998;9.116;2023-09-19T05:57:32;14.40;99.90
33328;DHT22;19692;52.998;9.116;2023-09-19T06:00:02;14.40;99.90
33328;DHT22;19692;52.998;9.116;2023-09-19T06:02:34;14.50;99.90
33328;DHT22;19692;52.998;9.116;2023-09-19T06:05:01;14.60;99.90
33328;DHT22;19692;52.998;9.116;2023-09-19T06:07:26;14.70;99.90
33328;DHT22;19692;52.998;9.116;2023-09-19T06:10:02;14.70;99.90
33328;DHT22;19692;52.998;9.116;2023-09-19T06:12:31;14.80;99.90
33328;DHT22;19692;52.998;9.116;2023-09-19T06:14:58;14.80;99.90
33328;DHT22;19692;52.998;9.116;2023-09-19T06:17:24;14.90;99.90
33328;DHT22;19692;52.998;9.116;2023-09-19T06:19:53;15.00;99.90
33328;DHT22;19692;52.998;9.116;2023-09-19T06:22:18;15.00;99.90
33328;DHT22;19692;52.998;9.116;2023-09-19T06:24:45;15.00;99.90
33328;DHT22;19692;52.998;9.116;2023-09-19T06:27:14;14.90;99.90
33328;DHT22;19692;52.998;9.116;2023-09-19T06:29:40;15.00;99.90
33328;DHT22;19692;52.998;9.116;2023-09-19T06:32:08;15.00;99.90
33328;DHT22;19692;52.998;9.116;2023-09-19T06:34:37;14.90;99.90
33328;DHT22;19692;52.998;9.116;2023-09-19T06:37:08;14.90;99.90
33328;DHT22;19692;52.998;9.116;2023-09-19T06:39:34;14.90;99.90
33328;DHT22;19692;52.998;9.116;2023-09-19T06:41:59;14.90;99.90
33328;DHT22;19692;52.998;9.116;2023-09-19T06:44:27;15.00;99.90
33328;DHT22;19692;52.998;9.116;2023-09-19T06:47:01;14.90;99.90
33328;DHT22;19692;52.998;9.116;2023-09-19T06:49:26;15.00;99.90
33328;DHT22;19692;52.998;9.116;2023-09-19T06:51:55;15.00;99.90
33328;DHT22;19692;52.998;9.116;2023-09-19T06:54:20;15.00;99.90
33328;DHT22;19692;52.998;9.116;2023-09-19T06:56:46;15.00;99.90
33328;DHT22;19692;52.998;9.116;2023-09-19T06:59:12;15.10;99.90
33328;DHT22;19692;52.998;9.116;2023-09-19T07:01:39;15.10;99.90
33328;DHT22;19692;52.998;9.116;2023-09-19T07:04:06;15.10;99.90
33328;DHT22;19692;52.998;9.116;2023-09-19T07:06:32;15.10;99.90
33328;DHT22;19692;52.998;9.116;2023-09-19T07:08:58;15.10;99.90
33328;DHT22;19692;52.998;9.116;2023-09-19T07:11:24;15.20;99.90
33328;DHT22;19692;52.998;9.116;2023-09-19T07:13:50;15.30;99.90
33328;DHT22;19692;52.998;9.116;2023-09-19T07:16:15;15.30;99.90
33328;DHT22;19692;52.998;9.116;2023-09-19T07:18:53;15.40;99.90
33328;DHT22;19692;52.998;9.116;2023-09-19T07:21:22;15.40;99.90
33328;DHT22;19692;52.998;9.116;2023-09-19T07:23:49;15.40;99.90
33328;DHT22;19692;52.998;9.116;2023-09-19T07:26:15;15.30;99.90
33328;DHT22;19692;52.998;9.116;2023-09-19T07:28:42;15.30;99.90
33328;DHT22;19692;52.998;9.116;2023-09-19T07:31:08;15.40;99.90
33328;DHT22;19692;52.998;9.116;2023-09-19T07:33:35;15.50;99.90
33328;DHT22;19692;52.998;9.116;2023-09-19T07:36:02;15.70;99.90
33328;DHT22;19692;52.998;9.116;2023-09-19T07:38:28;15.90;99.90
33328;DHT22;19692;52.998;9.116;2023-09-19T07:41:00;16.20;99.90
33328;DHT22;19692;52.998;9.116;2023-09-19T07:43:26;16.30;99.90
33328;DHT22;19692;52.998;9.116;2023-09-19T07:45:52;16.30;99.90
33328;DHT22;19692;52.998;9.116;2023-09-19T07:48:18;16.50;99.90
33328;DHT22;19692;52.998;9.116;2023-09-19T07:50:44;16.40;99.90
33328;DHT22;19692;52.998;9.116;2023-09-19T07:53:10;16.50;99.90
33328;DHT22;19692;52.998;9.116;2023-09-19T07:55:39;16.50;99.90
33328;DHT22;19692;52.998;9.116;2023-09-19T07:58:06;16.50;99.90
33328;DHT22;19692;52.998;9.116;2023-09-19T08:00:32;16.60;99.90
33328;DHT22;19692;52.998;9.116;2023-09-19T08:03:00;16.60;99.90
33328;DHT22;19692;52.998;9.116;2023-09-19T08:05:27;16.60;99.90
33328;DHT22;19692;52.998;9.116;2023-09-19T08:07:53;16.80;99.90
33328;DHT22;19692;52.998;9.116;2023-09-19T08:10:21;16.90;99.90
33328;DHT22;19692;52.998;9.116;2023-09-19T08:12:48;17.10;99.90
33328;DHT22;19692;52.998;9.116;2023-09-19T08:15:14;17.20;99.90
33328;DHT22;19692;52.998;9.116;2023-09-19T08:17:41;17.30;99.90
33328;DHT22;19692;52.998;9.116;2023-09-19T08:20:09;17.20;99.90
33328;DHT22;19692;52.998;9.116;2023-09-19T08:22:43;17.20;99.90
33328;DHT22;19692;52.998;9.116;2023-09-19T08:25:11;17.40;99.90
33328;DHT22;19692;52.998;9.116;2023-09-19T08:27:37;17.30;99.90
33328;DHT22;19692;52.998;9.116;2023-09-19T08:30:03;17.50;99.90
33328;DHT22;19692;52.998;9.116;2023-09-19T08:32:29;17.60;99.90
33328;DHT22;19692;52.998;9.116;2023-09-19T08:34:55;17.70;99.90
33328;DHT22;19692;52.998;9.116;2023-09-19T08:37:21;17.60;99.90
33328;DHT22;19692;52.998;9.116;2023-09-19T08:39:46;17.60;99.90
33328;DHT22;19692;52.998;9.116;2023-09-19T08:42:12;17.80;99.90
33328;DHT22;19692;52.998;9.116;2023-09-19T08:44:38;17.60;99.90
33328;DHT22;19692;52.998;9.116;2023-09-19T08:47:10;17.60;99.90
33328;DHT22;19692;52.998;9.116;2023-09-19T08:49:57;17.60;99.90
33328;DHT22;19692;52.998;9.116;2023-09-19T08:52:32;17.50;99.90
33328;DHT22;19692;52.998;9.116;2023-09-19T08:55:02;17.50;99.90
33328;DHT22;19692;52.998;9.116;2023-09-19T08:57:33;17.50;99.90
33328;DHT22;19692;52.998;9.116;2023-09-19T09:00:04;17.70;99.90
33328;DHT22;19692;52.998;9.116;2023-09-19T09:02:38;17.90;99.90
33328;DHT22;19692;52.998;9.116;2023-09-19T09:05:08;18.00;99.90
33328;DHT22;19692;52.998;9.116;2023-09-19T09:07:40;17.80;99.90
33328;DHT22;19692;52.998;9.116;2023-09-19T09:10:06;17.80;99.90
33328;DHT22;19692;52.998;9.116;2023-09-19T09:12:33;17.90;99.90
33328;DHT22;19692;52.998;9.116;2023-09-19T09:15:02;17.90;99.90
33328;DHT22;19692;52.998;9.116;2023-09-19T09:17:29;17.70;99.90
33328;DHT22;19692;52.998;9.116;2023-09-19T09:19:55;17.80;99.90
33328;DHT22;19692;52.998;9.116;2023-09-19T09:22:22;17.90;99.90
33328;DHT22;19692;52.998;9.116;2023-09-19T09:24:52;17.80;99.90
33328;DHT22;19692;52.998;9.116;2023-09-19T09:27:23;18.00;99.90
33328;DHT22;19692;52.998;9.116;2023-09-19T09:29:51;18.00;99.90
33328;DHT22;19692;52.998;9.116;2023-09-19T09:32:28;18.20;99.90
33328;DHT22;19692;52.998;9.116;2023-09-19T09:34:57;18.30;99.90
33328;DHT22;19692;52.998;9.116;2023-09-19T09:37:24;18.60;99.90
33328;DHT22;19692;52.998;9.116;2023-09-19T09:40:02;18.60;99.90
33328;DHT22;19692;52.998;9.116;2023-09-19T09:42:40;18.50;99.90
33328;DHT22;19692;52.998;9.116;2023-09-19T09:45:19;18.20;99.90
33328;DHT22;19692;52.998;9.116;2023-09-19T09:47:58;18.30;99.90
33328;DHT22;19692;52.998;9.116;2023-09-19T09:50:47;18.30;99.90
33328;DHT22;19692;52.998;9.116;2023-09-19T09:53:21;18.20;99.90
33328;DHT22;19692;52.998;9.116;2023-09-19T09:56:08;18.30;99.90
33328;DHT22;19692;52.998;9.116;2023-09-19T09:58:49;18.60;99.90
33328;DHT22;19692;52.998;9.116;2023-09-19T10:01:20;18.90;99.90
33328;DHT22;19692;52.998;9.116;2023-09-19T10:03:46;18.70;99.90
33328;DHT22;19692;52.998;9.116;2023-09-19T10:06:16;18.70;99.90
33328;DHT22;19692;52.998;9.116;2023-09-19T10:11:47;18.60;99.90
33328;DHT22;19692;52.998;9.116;2023-09-19T10:14:20;18.40;99.90
33328;DHT22;19692;52.998;9.116;2023-09-19T10:16:49;18.20;99.90
33328;DHT22;19692;52.998;9.116;2023-09-19T10:19:29;18.20;99.90
33328;DHT22;19692;52.998;9.116;2023-09-19T10:21:59;18.30;99.90
33328;DHT22;19692;52.998;9.116;2023-09-19T10:24:28;18.20;99.90
33328;DHT22;19692;52.998;9.116;2023-09-19T10:26:55;18.10;99.90
33328;DHT22;19692;52.998;9.116;2023-09-19T10:29:21;18.20;99.90
33328;DHT22;19692;52.998;9.116;2023-09-19T10:31:47;18.40;99.90
33328;DHT22;19692;52.998;9.116;2023-09-19T10:34:17;18.40;99.90
33328;DHT22;19692;52.998;9.116;2023-09-19T10:36:46;18.40;99.90
33328;DHT22;19692;52.998;9.116;2023-09-19T10:39:15;18.30;99.90
33328;DHT22;19692;52.998;9.116;2023-09-19T10:41:50;18.20;99.90
33328;DHT22;19692;52.998;9.116;2023-09-19T10:44:22;18.20;99.90
33328;DHT22;19692;52.998;9.116;2023-09-19T10:46:51;18.20;99.90
33328;DHT22;19692;52.998;9.116;2023-09-19T10:49:19;18.20;99.90
33328;DHT22;19692;52.998;9.116;2023-09-19T10:51:47;18.10;99.90
33328;DHT22;19692;52.998;9.116;2023-09-19T10:54:18;18.30;99.90
33328;DHT22;19692;52.998;9.116;2023-09-19T10:56:51;18.40;99.90
33328;DHT22;19692;52.998;9.116;2023-09-19T10:59:20;18.60;99.90
33328;DHT22;19692;52.998;9.116;2023-09-19T11:01:51;18.90;99.90
33328;DHT22;19692;52.998;9.116;2023-09-19T11:04:27;19.20;99.90
33328;DHT22;19692;52.998;9.116;2023-09-19T11:07:07;19.20;99.90
33328;DHT22;19692;52.998;9.116;2023-09-19T11:09:52;19.30;99.90
33328;DHT22;19692;52.998;9.116;2023-09-19T11:14:58;19.30;99.90
33328;DHT22;19692;52.998;9.116;2023-09-19T11:17:33;19.30;99.90
33328;DHT22;19692;52.998;9.116;2023-09-19T11:30:32;19.50;99.90
33328;DHT22;19692;52.998;9.116;2023-09-19T11:36:05;19.70;99.90
33328;DHT22;19692;52.998;9.116;2023-09-19T11:43:51;20.10;99.90
33328;DHT22;19692;52.998;9.116;2023-09-19T11:46:18;19.90;99.90
33328;DHT22;19692;52.998;9.116;2023-09-19T11:48:50;20.20;99.90
33328;DHT22;19692;52.998;9.116;2023-09-19T11:51:21;20.00;99.90
33328;DHT22;19692;52.998;9.116;2023-09-19T11:53:51;19.60;99.90
33328;DHT22;19692;52.998;9.116;2023-09-19T11:56:20;19.70;99.90
33328;DHT22;19692;52.998;9.116;2023-09-19T11:58:50;19.80;99.90
33328;DHT22;19692;52.998;9.116;2023-09-19T12:01:30;20.10;99.90
33328;DHT22;19692;52.998;9.116;2023-09-19T12:03:58;20.00;99.90
33328;DHT22;19692;52.998;9.116;2023-09-19T12:06:28;20.10;99.90
33328;DHT22;19692;52.998;9.116;2023-09-19T12:09:02;20.10;99.90
33328;DHT22;19692;52.998;9.116;2023-09-19T12:11:32;20.40;99.90
33328;DHT22;19692;52.998;9.116;2023-09-19T12:13:59;20.60;99.90
33328;DHT22;19692;52.998;9.116;2023-09-19T12:16:26;20.50;99.90
33328;DHT22;19692;52.998;9.116;2023-09-19T12:18:56;20.20;99.90
33328;DHT22;19692;52.998;9.116;2023-09-19T12:21:28;19.80;99.90
33328;DHT22;19692;52.998;9.116;2023-09-19T12:26:30;19.60;99.90
33328;DHT22;19692;52.998;9.116;2023-09-19T12:29:17;19.90;99.90
33328;DHT22;19692;52.998;9.116;2023-09-19T12:31:54;20.00;99.90
33328;DHT22;19692;52.998;9.116;2023-09-19T12:34:30;20.10;99.90
33328;DHT22;19692;52.998;9.116;2023-09-19T12:37:10;20.30;99.90
33328;DHT22;19692;52.998;9.116;2023-09-19T12:39:39;20.30;99.90
33328;DHT22;19692;52.998;9.116;2023-09-19T12:42:08;20.20;99.90
33328;DHT22;19692;52.998;9.116;2023-09-19T12:44:44;20.10;99.90
33328;DHT22;19692;52.998;9.116;2023-09-19T12:47:16;20.30;99.90
33328;DHT22;19692;52.998;9.116;2023-09-19T12:50:13;20.00;99.90
33328;DHT22;19692;52.998;9.116;2023-09-19T12:52:52;20.20;99.90
33328;DHT22;19692;52.998;9.116;2023-09-19T12:55:25;20.30;99.90
33328;DHT22;19692;52.998;9.116;2023-09-19T12:58:12;20.40;99.90
33328;DHT22;19692;52.998;9.116;2023-09-19T13:00:42;20.70;99.90
33328;DHT22;19692;52.998;9.116;2023-09-19T13:05:58;20.30;99.90
33328;DHT22;19692;52.998;9.116;2023-09-19T13:11:22;20.10;99.90
33328;DHT22;19692;52.998;9.116;2023-09-19T13:13:51;20.60;99.90
33328;DHT22;19692;52.998;9.116;2023-09-19T13:22:41;21.00;99.90
33328;DHT22;19692;52.998;9.116;2023-09-19T13:25:16;21.10;99.90
33328;DHT22;19692;52.998;9.116;2023-09-19T13:27:45;21.50;99.90
33328;DHT22;19692;52.998;9.116;2023-09-19T13:30:20;21.20;99.90
33328;DHT22;19692;52.998;9.116;2023-09-19T13:32:46;20.80;99.90
33328;DHT22;19692;52.998;9.116;2023-09-19T13:35:13;20.60;99.90
33328;DHT22;19692;52.998;9.116;2023-09-19T13:37:41;20.20;99.90
33328;DHT22;19692;52.998;9.116;2023-09-19T13:40:27;20.10;99.90
33328;DHT22;19692;52.998;9.116;2023-09-19T13:43:00;20.00;99.90
33328;DHT22;19692;52.998;9.116;2023-09-19T13:45:26;19.80;99.90
33328;DHT22;19692;52.998;9.116;2023-09-19T13:47:56;20.00;99.90
33328;DHT22;19692;52.998;9.116;2023-09-19T13:50:22;20.20;99.90
33328;DHT22;19692;52.998;9.116;2023-09-19T13:52:53;20.30;99.90
33328;DHT22;19692;52.998;9.116;2023-09-19T13:55:20;20.40;99.90
33328;DHT22;19692;52.998;9.116;2023-09-19T13:57:49;20.40;99.90
33328;DHT22;19692;52.998;9.116;2023-09-19T14:00:24;20.60;99.90
33328;DHT22;19692;52.998;9.116;2023-09-19T14:02:50;20.60;99.90
33328;DHT22;19692;52.998;9.116;2023-09-19T14:05:16;20.60;99.90
33328;DHT22;19692;52.998;9.116;2023-09-19T14:07:45;20.70;99.90
33328;DHT22;19692;52.998;9.116;2023-09-19T14:10:11;20.40;99.90
33328;DHT22;19692;52.998;9.116;2023-09-19T14:12:38;20.30;99.90
33328;DHT22;19692;52.998;9.116;2023-09-19T14:15:09;20.10;99.90
33328;DHT22;19692;52.998;9.116;2023-09-19T14:17:35;20.00;99.90
33328;DHT22;19692;52.998;9.116;2023-09-19T14:20:03;20.00;99.90
33328;DHT22;19692;52.998;9.116;2023-09-19T14:22:31;20.10;99.90
33328;DHT22;19692;52.998;9.116;2023-09-19T14:24:57;19.90;99.90
33328;DHT22;19692;52.998;9.116;2023-09-19T14:27:25;19.90;99.90
33328;DHT22;19692;52.998;9.116;2023-09-19T14:29:50;19.80;99.90
33328;DHT22;19692;52.998;9.116;2023-09-19T14:32:17;19.80;99.90
33328;DHT22;19692;52.998;9.116;2023-09-19T14:34:43;19.80;99.90
33328;DHT22;19692;52.998;9.116;2023-09-19T14:37:12;20.00;99.90
33328;DHT22;19692;52.998;9.116;2023-09-19T14:39:38;20.10;99.90
33328;DHT22;19692;52.998;9.116;2023-09-19T14:42:06;20.20;99.90
33328;DHT22;19692;52.998;9.116;2023-09-19T14:44:31;20.10;99.90
33328;DHT22;19692;52.998;9.116;2023-09-19T14:46:57;20.20;99.90
33328;DHT22;19692;52.998;9.116;2023-09-19T14:49:24;20.00;99.90
33328;DHT22;19692;52.998;9.116;2023-09-19T14:51:50;19.90;99.90
33328;DHT22;19692;52.998;9.116;2023-09-19T14:54:17;20.00;99.90
33328;DHT22;19692;52.998;9.116;2023-09-19T14:56:44;19.90;99.90
33328;DHT22;19692;52.998;9.116;2023-09-19T14:59:10;19.80;99.90
33328;DHT22;19692;52.998;9.116;2023-09-19T15:01:36;19.70;99.90
33328;DHT22;19692;52.998;9.116;2023-09-19T15:04:02;19.60;99.90
33328;DHT22;19692;52.998;9.116;2023-09-19T15:06:28;19.60;99.90
33328;DHT22;19692;52.998;9.116;2023-09-19T15:08:54;19.50;99.90
33328;DHT22;19692;52.998;9.116;2023-09-19T15:11:20;19.40;99.90
33328;DHT22;19692;52.998;9.116;2023-09-19T15:13:48;19.40;99.90
33328;DHT22;19692;52.998;9.116;2023-09-19T15:16:15;19.40;99.90
33328;DHT22;19692;52.998;9.116;2023-09-19T15:18:44;19.30;99.90
33328;DHT22;19692;52.998;9.116;2023-09-19T15:21:13;19.30;99.90
33328;DHT22;19692;52.998;9.116;2023-09-19T15:23:41;19.20;99.90
33328;DHT22;19692;52.998;9.116;2023-09-19T15:26:10;19.20;99.90
33328;DHT22;19692;52.998;9.116;2023-09-19T15:28:39;19.10;99.90
33328;DHT22;19692;52.998;9.116;2023-09-19T15:31:10;19.10;99.90
33328;DHT22;19692;52.998;9.116;2023-09-19T15:33:37;19.10;99.90
33328;DHT22;19692;52.998;9.116;2023-09-19T15:36:04;19.10;99.90
33328;DHT22;19692;52.998;9.116;2023-09-19T15:39:03;19.20;99.90
33328;DHT22;19692;52.998;9.116;2023-09-19T15:41:36;19.20;99.90
33328;DHT22;19692;52.998;9.116;2023-09-19T15:44:19;19.20;99.90
33328;DHT22;19692;52.998;9.116;2023-09-19T15:46:45;19.00;99.90
33328;DHT22;19692;52.998;9.116;2023-09-19T15:49:11;19.10;99.90
33328;DHT22;19692;52.998;9.116;2023-09-19T15:51:38;19.00;99.90
33328;DHT22;19692;52.998;9.116;2023-09-19T15:54:12;19.00;99.90
33328;DHT22;19692;52.998;9.116;2023-09-19T15:56:43;19.00;99.90
33328;DHT22;19692;52.998;9.116;2023-09-19T15:59:16;19.10;99.90
33328;DHT22;19692;52.998;9.116;2023-09-19T16:01:43;19.00;99.90
33328;DHT22;19692;52.998;9.116;2023-09-19T16:04:10;19.00;99.90
33328;DHT22;19692;52.998;9.116;2023-09-19T16:06:36;19.10;99.90
33328;DHT22;19692;52.998;9.116;2023-09-19T16:09:03;19.00;99.90
33328;DHT22;19692;52.998;9.116;2023-09-19T16:11:33;19.00;99.90
33328;DHT22;19692;52.998;9.116;2023-09-19T16:14:01;19.00;99.90
33328;DHT22;19692;52.998;9.116;2023-09-19T16:16:28;19.00;99.90
33328;DHT22;19692;52.998;9.116;2023-09-19T16:19:00;19.00;99.90
33328;DHT22;19692;52.998;9.116;2023-09-19T16:21:29;19.00;99.90
33328;DHT22;19692;52.998;9.116;2023-09-19T16:23:57;18.90;99.90
33328;DHT22;19692;52.998;9.116;2023-09-19T16:26:24;18.90;99.90
33328;DHT22;19692;52.998;9.116;2023-09-19T16:28:53;18.90;99.90
33328;DHT22;19692;52.998;9.116;2023-09-19T16:31:20;18.80;99.90
33328;DHT22;19692;52.998;9.116;2023-09-19T16:33:47;18.90;99.90
33328;DHT22;19692;52.998;9.116;2023-09-19T16:36:14;18.90;99.90
33328;DHT22;19692;52.998;9.116;2023-09-19T16:38:45;18.90;99.90
33328;DHT22;19692;52.998;9.116;2023-09-19T16:41:13;18.90;99.90
33328;DHT22;19692;52.998;9.116;2023-09-19T16:43:40;18.90;99.90